createdAt,value
2018-01-15T00:01:55.754Z,45.77
2018-01-15T00:04:23.793Z,44.40
2018-01-15T00:06:51.868Z,44.03
2018-01-15T00:09:19.886Z,45.53
2018-01-15T00:11:47.878Z,42.90
2018-01-15T00:14:15.878Z,47.13
2018-01-15T00:16:43.922Z,48.10
2018-01-15T00:19:12.006Z,42.47
2018-01-15T00:21:40.038Z,48.40
2018-01-15T00:24:08.126Z,46.20
2018-01-15T00:26:36.210Z,45.57
2018-01-15T00:29:04.304Z,48.07
2018-01-15T00:31:32.310Z,47.00
2018-01-15T00:34:00.311Z,46.07
2018-01-15T00:36:28.379Z,53.00
2018-01-15T00:38:56.381Z,41.87
2018-01-15T00:41:24.383Z,41.50
2018-01-15T00:43:52.386Z,44.93
2018-01-15T00:46:20.414Z,46.60
2018-01-15T00:48:49.177Z,46.03
2018-01-15T00:51:17.162Z,44.27
2018-01-15T00:53:45.945Z,39.57
2018-01-15T00:56:14.745Z,43.53
2018-01-15T00:58:43.558Z,38.87
2018-01-15T01:01:11.553Z,42.53
2018-01-15T01:03:39.539Z,37.77
2018-01-15T01:06:07.572Z,37.23
2018-01-15T01:08:35.562Z,35.50
2018-01-15T01:11:03.589Z,33.53
2018-01-15T01:13:31.554Z,35.30
2018-01-15T01:16:00.374Z,35.27
2018-01-15T01:18:28.378Z,35.33
2018-01-15T01:20:56.383Z,36.97
2018-01-15T01:23:25.161Z,34.70
2018-01-15T01:25:53.894Z,33.67
2018-01-15T01:28:21.953Z,35.40
2018-01-15T01:30:49.981Z,35.20
2018-01-15T01:33:17.999Z,34.40
2018-01-15T01:35:45.986Z,30.00
2018-01-15T01:38:13.958Z,34.13
2018-01-15T01:40:41.969Z,34.37
2018-01-15T01:43:10.837Z,34.97
2018-01-15T01:45:38.838Z,35.13
2018-01-15T01:48:06.873Z,37.37
2018-01-15T01:50:34.866Z,34.77
2018-01-15T01:53:03.640Z,38.47
2018-01-15T01:55:31.702Z,36.20
2018-01-15T01:57:59.743Z,35.13
2018-01-15T02:00:27.762Z,35.97
2018-01-15T02:02:56.558Z,38.87
2018-01-15T02:05:25.364Z,37.03
2018-01-15T02:07:53.362Z,38.07
2018-01-15T02:10:21.350Z,36.90
2018-01-15T02:12:49.666Z,37.47
2018-01-15T02:15:18.434Z,41.20
2018-01-15T02:17:47.225Z,38.10
2018-01-15T02:20:15.297Z,34.67
2018-01-15T02:22:44.135Z,35.80
2018-01-15T02:25:12.231Z,37.97
2018-01-15T02:27:40.337Z,36.23
2018-01-15T02:30:09.170Z,36.70
2018-01-15T02:32:37.161Z,39.07
2018-01-15T02:35:05.218Z,40.77
2018-01-15T02:37:33.265Z,40.47
2018-01-15T02:40:01.302Z,39.70
2018-01-15T02:42:30.098Z,43.60
2018-01-15T02:44:58.871Z,38.50
2018-01-15T02:47:26.906Z,39.37
2018-01-15T02:49:54.931Z,35.77
2018-01-15T02:52:23.670Z,34.90
2018-01-15T02:54:51.657Z,34.47
2018-01-15T02:57:19.685Z,34.13
2018-01-15T02:59:47.683Z,34.70
2018-01-15T03:02:15.697Z,32.93
2018-01-15T03:04:44.463Z,33.20
2018-01-15T03:07:12.458Z,32.50
2018-01-15T03:09:41.290Z,35.80
2018-01-15T03:12:09.309Z,33.10
2018-01-15T03:14:38.114Z,33.77
2018-01-15T03:17:06.158Z,34.97
2018-01-15T03:19:34.944Z,33.40
2018-01-15T03:22:02.957Z,34.03
2018-01-15T03:24:30.998Z,32.20
2018-01-15T03:26:59.769Z,33.50
2018-01-15T03:29:27.782Z,30.47
2018-01-15T03:31:55.789Z,29.67
2018-01-15T03:34:23.786Z,30.70
2018-01-15T03:36:52.607Z,32.23
2018-01-15T03:39:20.632Z,32.80
2018-01-15T03:41:48.638Z,30.37
2018-01-15T03:44:16.649Z,33.17
2018-01-15T03:46:44.673Z,34.03
2018-01-15T03:49:12.695Z,33.23
2018-01-15T03:51:40.705Z,33.83
2018-01-15T03:54:09.500Z,31.47
2018-01-15T03:56:37.482Z,38.80
2018-01-15T03:59:05.482Z,36.30
2018-01-15T04:01:33.520Z,34.97
2018-01-15T04:04:01.530Z,36.30
2018-01-15T04:06:29.519Z,36.87
2018-01-15T04:08:57.561Z,32.63
2018-01-15T04:11:25.580Z,35.80
2018-01-15T04:13:54.373Z,33.93
2018-01-15T04:16:23.198Z,39.27
2018-01-15T04:18:51.249Z,36.47
2018-01-15T04:21:19.280Z,35.93
2018-01-15T04:23:47.288Z,38.90
2018-01-15T04:26:15.321Z,32.50
2018-01-15T04:28:43.310Z,34.63
2018-01-15T04:31:11.377Z,33.30
2018-01-15T04:33:40.146Z,41.73
2018-01-15T04:36:08.238Z,38.87
2018-01-15T04:38:37.046Z,37.20
2018-01-15T04:41:05.098Z,35.73
2018-01-15T04:43:33.864Z,38.50
2018-01-15T04:46:01.911Z,32.60
2018-01-15T04:48:29.932Z,35.80
2018-01-15T04:50:57.978Z,33.63
2018-01-15T04:53:26.001Z,31.73
2018-01-15T04:55:54.000Z,36.03
2018-01-15T04:58:22.054Z,30.73
2018-01-15T05:00:50.066Z,32.80
2018-01-15T05:03:18.838Z,32.17
2018-01-15T05:05:46.850Z,33.55
2018-01-15T05:08:14.872Z,32.15
2018-01-15T05:10:42.896Z,28.95
2018-01-15T05:13:10.910Z,37.70
2018-01-15T05:15:38.960Z,33.03
2018-01-15T05:18:07.002Z,32.67
2018-01-15T05:20:35.037Z,33.40
2018-01-15T05:23:03.054Z,32.70
2018-01-15T05:25:31.079Z,35.33
2018-01-15T05:27:59.863Z,40.53
2018-01-15T05:30:27.873Z,34.20
2018-01-15T05:32:55.896Z,38.05
2018-01-15T05:35:23.918Z,35.60
2018-01-15T05:37:51.931Z,36.55
2018-01-15T05:40:19.923Z,34.95
2018-01-15T05:42:48.753Z,32.95
2018-01-15T05:45:16.797Z,33.50
2018-01-15T05:47:44.790Z,31.67
2018-01-15T05:50:12.794Z,34.63
2018-01-15T05:52:40.851Z,439.75
2018-01-15T05:55:08.885Z,217.80
2018-01-15T05:57:36.949Z,134.75
2018-01-15T06:00:05.096Z,109.13
2018-01-15T06:02:33.127Z,71.18
2018-01-15T06:05:01.142Z,53.25
2018-01-15T06:07:29.922Z,49.33
2018-01-15T06:09:57.966Z,40.95
2018-01-15T06:12:25.978Z,38.92
2018-01-15T06:14:54.773Z,34.00
2018-01-15T06:17:22.786Z,35.38
2018-01-15T06:19:50.834Z,31.95
2018-01-15T06:22:18.864Z,35.15
2018-01-15T06:24:46.869Z,39.42
2018-01-15T06:27:14.923Z,34.20
2018-01-15T06:29:42.937Z,36.30
2018-01-15T06:32:10.966Z,33.45
2018-01-15T06:34:38.998Z,39.10
2018-01-15T06:37:07.027Z,38.87
2018-01-15T06:39:35.047Z,34.83
2018-01-15T06:42:03.098Z,37.83
2018-01-15T06:44:31.146Z,41.90
2018-01-15T06:46:59.147Z,39.83
2018-01-15T06:49:27.216Z,35.40
2018-01-15T06:51:55.266Z,39.90
2018-01-15T06:54:23.305Z,39.63
2018-01-15T06:56:51.410Z,35.33
2018-01-15T06:59:19.521Z,42.65
2018-01-15T07:01:47.542Z,39.90
2018-01-15T07:04:15.526Z,44.90
2018-01-15T07:06:43.600Z,42.33
2018-01-15T07:09:11.613Z,43.83
2018-01-15T07:11:40.387Z,48.67
2018-01-15T07:14:08.383Z,48.42
2018-01-15T07:16:36.409Z,51.95
2018-01-15T07:19:04.746Z,48.70
2018-01-15T07:21:32.878Z,50.28
2018-01-15T07:24:01.674Z,54.40
2018-01-15T07:26:30.435Z,48.03
2018-01-15T07:28:58.454Z,41.37
2018-01-15T07:31:26.498Z,41.47
2018-01-15T07:33:55.291Z,43.92
2018-01-15T07:36:24.047Z,48.00
2018-01-15T07:38:52.050Z,43.70
2018-01-15T07:41:20.834Z,41.27
2018-01-15T07:43:49.614Z,40.70
2018-01-15T07:46:17.653Z,44.60
2018-01-15T07:48:45.668Z,42.13
2018-01-15T07:51:14.458Z,48.07
2018-01-15T07:53:43.257Z,43.67
2018-01-15T07:56:11.262Z,44.20
2018-01-15T07:58:39.285Z,42.60
2018-01-15T08:01:08.051Z,41.43
2018-01-15T08:03:36.024Z,45.47
2018-01-15T08:06:04.037Z,40.08
2018-01-15T08:08:32.053Z,43.75
2018-01-15T08:11:00.076Z,41.27
2018-01-15T08:13:28.090Z,48.63
2018-01-15T08:15:56.111Z,42.88
2018-01-15T08:18:24.129Z,38.47
2018-01-15T08:20:52.165Z,44.63
2018-01-15T08:23:20.171Z,42.70
2018-01-15T08:25:48.205Z,40.63
2018-01-15T08:28:16.620Z,39.85
2018-01-15T08:30:44.662Z,47.90
2018-01-15T08:33:12.686Z,49.67
2018-01-15T08:35:41.494Z,39.70
2018-01-15T08:38:09.511Z,40.40
2018-01-15T08:40:38.275Z,41.30
2018-01-15T08:43:06.293Z,46.55
2018-01-15T08:45:34.335Z,41.65
2018-01-15T08:48:02.358Z,37.88
2018-01-15T08:50:30.354Z,41.75
2018-01-15T08:52:58.342Z,41.80
2018-01-15T08:55:26.390Z,37.30
2018-01-15T08:57:54.386Z,38.23
2018-01-15T09:00:22.390Z,42.03
2018-01-15T09:02:51.170Z,37.60
2018-01-15T09:05:19.173Z,47.53
2018-01-15T09:07:47.176Z,38.85
2018-01-15T09:10:15.214Z,47.63
2018-01-15T09:12:43.218Z,40.30
2018-01-15T09:15:11.217Z,43.27
2018-01-15T09:17:39.264Z,44.85
2018-01-15T09:20:07.293Z,43.78
2018-01-15T09:22:35.323Z,40.97
2018-01-15T09:25:03.338Z,47.08
2018-01-15T09:27:31.396Z,39.37
2018-01-15T09:29:59.410Z,69.70
2018-01-15T09:32:28.177Z,58.27
2018-01-15T09:34:56.183Z,51.73
2018-01-15T09:37:24.205Z,60.20
2018-01-15T09:39:52.203Z,63.40
2018-01-15T09:42:20.226Z,63.73
2018-01-15T09:44:48.258Z,57.83
2018-01-15T09:47:16.291Z,83.50
2018-01-15T09:49:44.294Z,73.80
2018-01-15T09:52:12.329Z,75.17
2018-01-15T09:54:40.330Z,68.60
2018-01-15T09:57:08.431Z,67.73
2018-01-15T09:59:36.546Z,58.90
2018-01-15T10:02:04.577Z,60.03
2018-01-15T10:04:33.338Z,64.60
2018-01-15T10:07:01.339Z,57.92
2018-01-15T10:09:30.112Z,59.70
2018-01-15T10:11:58.154Z,59.23
2018-01-15T10:14:26.153Z,58.27
2018-01-15T10:16:54.161Z,63.60
2018-01-15T10:19:22.163Z,65.30
2018-01-15T10:21:50.933Z,63.03
2018-01-15T10:24:18.965Z,68.60
2018-01-15T10:26:47.725Z,73.50
2018-01-15T10:29:15.758Z,67.40
2018-01-15T10:31:43.791Z,71.90
2018-01-15T10:34:12.567Z,78.93
2018-01-15T10:36:40.570Z,70.17
2018-01-15T10:39:08.582Z,68.77
2018-01-15T10:41:36.581Z,97.83
2018-01-15T10:44:05.383Z,85.63
2018-01-15T10:46:33.432Z,93.20
2018-01-15T10:49:01.434Z,86.07
2018-01-15T10:51:29.467Z,85.13
2018-01-15T10:53:57.491Z,83.47
2018-01-15T10:56:25.551Z,82.77
2018-01-15T10:58:53.565Z,83.20
2018-01-15T11:01:27.476Z,83.10
2018-01-15T11:03:55.483Z,83.73
2018-01-15T11:06:24.270Z,91.33
2018-01-15T11:08:53.036Z,76.33
2018-01-15T11:11:21.065Z,79.80
2018-01-15T11:13:49.083Z,79.37
2018-01-15T11:16:17.886Z,78.83
2018-01-15T11:18:47.462Z,75.07
2018-01-15T11:21:15.470Z,90.37
2018-01-15T11:23:43.470Z,74.60
2018-01-15T11:26:11.525Z,76.70
2018-01-15T11:28:39.519Z,84.53
2018-01-15T11:31:07.515Z,78.33
2018-01-15T11:33:35.516Z,74.17
2018-01-15T11:36:04.350Z,81.97
2018-01-15T11:38:32.357Z,83.93
2018-01-15T11:41:00.386Z,72.90
2018-01-15T11:43:28.428Z,71.70
2018-01-15T11:45:56.445Z,71.53
2018-01-15T11:48:24.423Z,73.07
2018-01-15T11:50:52.407Z,70.70
2018-01-15T11:53:21.239Z,70.37
2018-01-15T11:55:49.255Z,69.93
2018-01-15T11:58:18.830Z,72.67
2018-01-15T12:00:46.851Z,71.20
2018-01-15T12:03:15.646Z,77.50
2018-01-15T12:05:44.415Z,78.23
2018-01-15T12:08:12.437Z,78.83
2018-01-15T12:10:40.435Z,80.93
2018-01-15T12:13:08.466Z,84.83
2018-01-15T12:15:36.490Z,73.87
2018-01-15T12:18:04.532Z,80.00
2018-01-15T12:20:32.577Z,74.50
2018-01-15T12:23:00.581Z,72.63
2018-01-15T12:25:28.617Z,70.40
2018-01-15T12:27:56.628Z,71.63
2018-01-15T12:30:24.681Z,76.17
2018-01-15T12:32:52.726Z,77.20
2018-01-15T12:35:20.719Z,80.83
2018-01-15T12:37:50.473Z,81.27
2018-01-15T12:40:19.257Z,84.47
2018-01-15T12:42:48.034Z,79.33
2018-01-15T12:45:16.034Z,80.37
2018-01-15T12:47:44.042Z,81.80
2018-01-15T12:50:12.037Z,72.93
2018-01-15T12:52:40.118Z,82.27
2018-01-15T12:55:08.190Z,72.27
2018-01-15T12:57:36.212Z,70.30
2018-01-15T13:00:04.352Z,71.50
2018-01-15T13:02:33.129Z,71.40
2018-01-15T13:05:01.924Z,76.47
2018-01-15T13:07:42.696Z,65.70
2018-01-15T13:10:11.489Z,65.60
2018-01-15T13:12:39.560Z,74.43
2018-01-15T13:15:07.604Z,64.17
2018-01-15T13:17:35.619Z,69.97
2018-01-15T13:20:03.733Z,70.53
2018-01-15T13:22:31.758Z,68.57
2018-01-15T13:24:59.839Z,70.33
2018-01-15T13:27:27.903Z,63.70
2018-01-15T13:29:55.945Z,66.60
2018-01-15T13:32:24.728Z,59.00
2018-01-15T13:34:53.544Z,65.83
2018-01-15T13:37:21.556Z,67.43
2018-01-15T13:39:49.619Z,64.57
2018-01-15T13:42:17.647Z,63.67
2018-01-15T13:44:45.673Z,69.30
2018-01-15T13:47:13.727Z,57.80
2018-01-15T13:49:41.794Z,71.93
2018-01-15T13:52:09.824Z,52.73
2018-01-15T13:54:37.888Z,64.50
2018-01-15T13:57:06.732Z,57.97
2018-01-15T13:59:34.832Z,57.33
2018-01-15T14:02:02.886Z,64.70
2018-01-15T14:04:30.939Z,58.37
2018-01-15T14:06:59.010Z,59.53
2018-01-15T14:09:27.037Z,57.83
2018-01-15T14:11:55.855Z,59.07
2018-01-15T14:14:23.893Z,61.17
2018-01-15T14:16:52.700Z,65.60
2018-01-15T14:19:21.154Z,61.47
2018-01-15T14:21:49.984Z,61.67
2018-01-15T14:24:18.021Z,61.73
2018-01-15T14:26:46.828Z,57.77
2018-01-15T14:29:14.891Z,61.10
2018-01-15T14:31:42.914Z,64.97
2018-01-15T14:34:10.945Z,66.60
2018-01-15T14:36:39.059Z,65.97
2018-01-15T14:39:07.924Z,66.60
2018-01-15T14:41:35.967Z,59.57
2018-01-15T14:44:04.093Z,64.73
2018-01-15T14:46:32.136Z,68.23
2018-01-15T14:49:00.210Z,78.00
2018-01-15T14:51:28.296Z,71.33
2018-01-15T14:53:56.347Z,63.87
2018-01-15T14:56:24.357Z,72.33
2018-01-15T14:58:52.376Z,75.03
2018-01-15T15:01:20.495Z,63.43
2018-01-15T15:03:48.542Z,66.83
2018-01-15T15:06:16.600Z,64.23
2018-01-15T15:08:44.629Z,65.33
2018-01-15T15:11:13.472Z,74.20
2018-01-15T15:13:41.484Z,70.43
2018-01-15T15:16:10.272Z,66.50
2018-01-15T15:18:39.056Z,64.83
2018-01-15T15:21:07.872Z,62.37
2018-01-15T15:23:35.940Z,69.83
2018-01-15T15:26:04.111Z,71.03
2018-01-15T15:28:32.159Z,66.73
2018-01-15T15:31:01.346Z,68.07
2018-01-15T15:33:29.393Z,82.63
2018-01-15T15:35:57.429Z,65.80
2018-01-15T15:38:25.526Z,72.63
2018-01-15T15:40:53.567Z,59.37
2018-01-15T15:43:21.655Z,71.40
2018-01-15T15:45:49.705Z,78.47
2018-01-15T15:48:17.797Z,77.57
2018-01-15T15:50:45.873Z,68.20
2018-01-15T15:53:13.943Z,73.70
2018-01-15T15:55:41.976Z,58.63
2018-01-15T15:58:10.789Z,72.40
2018-01-15T16:00:38.849Z,66.33
2018-01-15T16:03:06.868Z,60.47
2018-01-15T16:05:34.933Z,67.67
2018-01-15T16:08:03.142Z,66.00
2018-01-15T16:10:35.372Z,76.03
2018-01-15T16:13:06.716Z,66.83
2018-01-15T16:15:34.768Z,62.37
2018-01-15T16:18:02.795Z,65.37
2018-01-15T16:20:30.855Z,74.03
2018-01-15T16:22:59.087Z,69.97
2018-01-15T16:25:27.138Z,65.73
2018-01-15T16:27:55.203Z,63.43
2018-01-15T16:30:23.248Z,78.07
2018-01-15T16:32:51.311Z,76.17
2018-01-15T16:35:19.399Z,67.93
2018-01-15T16:37:48.231Z,77.50
2018-01-15T16:40:16.271Z,72.00
2018-01-15T16:42:45.107Z,80.17
2018-01-15T16:45:13.134Z,66.53
2018-01-15T16:47:41.169Z,68.63
2018-01-15T16:50:14.823Z,75.33
2018-01-15T16:52:42.876Z,72.07
2018-01-15T16:55:11.718Z,70.07
2018-01-15T16:57:39.788Z,76.73
2018-01-15T17:00:07.881Z,79.60
2018-01-15T17:02:35.929Z,69.27
2018-01-15T17:05:03.989Z,70.63
2018-01-15T17:07:32.039Z,79.43
2018-01-15T17:10:00.148Z,70.40
2018-01-15T17:12:28.203Z,83.00
2018-01-15T17:14:56.312Z,76.80
2018-01-15T17:17:24.373Z,83.73
2018-01-15T17:19:52.435Z,78.60
2018-01-15T17:22:20.474Z,80.67
2018-01-15T17:24:48.527Z,67.30
2018-01-15T17:27:16.568Z,76.13
2018-01-15T17:29:44.623Z,79.33
2018-01-15T17:32:12.692Z,72.40
2018-01-15T17:34:40.721Z,74.70
2018-01-15T17:37:08.781Z,68.70
2018-01-15T17:39:36.777Z,75.90
2018-01-15T17:42:04.824Z,76.27
2018-01-15T17:44:32.847Z,73.90
2018-01-15T17:47:00.880Z,73.73
2018-01-15T17:49:28.937Z,68.47
2018-01-15T17:51:57.016Z,73.30
2018-01-15T17:54:25.103Z,75.23
2018-01-15T17:56:53.150Z,76.27
2018-01-15T17:59:21.157Z,74.80
2018-01-15T18:01:49.244Z,70.90
2018-01-15T18:04:17.271Z,76.47
2018-01-15T18:06:45.363Z,71.70
2018-01-15T18:09:13.403Z,76.60
2018-01-15T18:11:41.425Z,80.17
2018-01-15T18:14:09.469Z,77.20
2018-01-15T18:16:37.595Z,76.00
2018-01-15T18:19:06.432Z,80.77
2018-01-15T18:21:34.524Z,67.00
2018-01-15T18:24:02.545Z,78.47
2018-01-15T18:26:30.607Z,82.73
2018-01-15T18:28:58.680Z,80.03
2018-01-15T18:31:26.757Z,68.60
2018-01-15T18:33:54.820Z,72.67
2018-01-15T18:36:22.845Z,76.73
2018-01-15T18:38:50.911Z,73.23
2018-01-15T18:41:18.956Z,78.87
2018-01-15T18:43:47.091Z,69.80
2018-01-15T18:46:15.900Z,85.40
2018-01-15T18:48:43.930Z,76.57
2018-01-15T18:51:11.961Z,72.17
2018-01-15T18:53:39.996Z,71.15
2018-01-15T18:56:08.804Z,76.30
2018-01-15T18:58:36.829Z,70.43
2018-01-15T19:01:04.921Z,65.07
2018-01-15T19:03:33.732Z,76.10
2018-01-15T19:06:01.753Z,74.77
2018-01-15T19:08:29.826Z,76.90
2018-01-15T19:10:57.841Z,74.80
2018-01-15T19:13:25.874Z,77.27
2018-01-15T19:15:53.913Z,73.20
2018-01-15T19:18:22.757Z,74.17
2018-01-15T19:20:50.793Z,78.80
2018-01-15T19:23:18.828Z,65.43
2018-01-15T19:25:46.847Z,65.80
2018-01-15T19:28:14.980Z,70.87
2018-01-15T19:30:43.118Z,74.87
2018-01-15T19:33:11.786Z,75.13
2018-01-15T19:38:40.815Z,76.97
2018-01-15T19:41:10.665Z,77.50
2018-01-15T19:43:57.504Z,71.40
2018-01-15T19:46:31.200Z,69.40
2018-01-15T19:49:04.857Z,71.93
2018-01-15T19:51:38.531Z,69.03
2018-01-15T19:54:13.096Z,76.77
2018-01-15T19:56:46.801Z,63.13
2018-01-15T19:59:20.482Z,65.27
2018-01-15T20:01:54.142Z,76.87
2018-01-15T20:04:27.702Z,67.20
2018-01-15T20:07:01.352Z,76.82
2018-01-15T20:09:35.045Z,69.20
2018-01-15T20:12:03.135Z,68.33
2018-01-15T20:14:32.004Z,71.83
2018-01-15T20:17:00.043Z,78.63
2018-01-15T20:19:28.111Z,66.77
2018-01-15T20:21:56.194Z,76.20
2018-01-15T20:24:24.255Z,70.27
2018-01-15T20:26:52.300Z,64.37
2018-01-15T20:29:20.328Z,73.00
2018-01-15T20:31:48.388Z,64.30
2018-01-15T20:34:16.448Z,71.47
2018-01-15T20:36:44.569Z,71.33
2018-01-15T20:39:13.408Z,68.60
2018-01-15T20:41:41.475Z,74.63
2018-01-15T20:44:09.501Z,70.13
2018-01-15T20:46:38.321Z,70.87
2018-01-15T20:49:06.346Z,72.28
2018-01-15T20:51:34.404Z,63.73
2018-01-15T20:54:02.476Z,69.93
2018-01-15T20:56:30.532Z,71.87
2018-01-15T20:58:58.624Z,71.97
2018-01-15T21:01:26.707Z,64.80
2018-01-15T21:03:55.541Z,67.90
2018-01-15T21:06:23.608Z,60.17
2018-01-15T21:08:51.678Z,66.47
2018-01-15T21:11:19.727Z,59.53
2018-01-15T21:13:47.763Z,62.20
2018-01-15T21:16:15.832Z,61.90
2018-01-15T21:18:43.889Z,66.07
2018-01-15T21:21:11.921Z,72.62
2018-01-15T21:23:39.964Z,69.47
2018-01-15T21:26:08.801Z,74.77
2018-01-15T21:28:36.844Z,78.87
2018-01-15T21:31:04.916Z,78.90
2018-01-15T21:33:33.004Z,83.03
2018-01-15T21:36:01.028Z,74.93
2018-01-15T21:38:29.828Z,83.45
2018-01-15T21:40:58.660Z,77.82
2018-01-15T21:43:26.689Z,83.10
2018-01-15T21:45:55.515Z,84.75
2018-01-15T21:48:23.545Z,87.90
2018-01-15T21:50:52.415Z,82.10
2018-01-15T21:53:20.502Z,88.15
2018-01-15T21:55:49.272Z,96.93
2018-01-15T21:58:17.299Z,76.80
2018-01-15T22:00:45.356Z,89.47
2018-01-15T22:03:13.423Z,78.30
2018-01-15T22:05:41.488Z,87.62
2018-01-15T22:08:09.555Z,102.57
2018-01-15T22:10:38.363Z,87.73
2018-01-15T22:13:06.349Z,78.13
2018-01-15T22:15:34.388Z,86.57
2018-01-15T22:18:02.448Z,73.57
2018-01-15T22:20:31.273Z,76.40
2018-01-15T22:22:59.281Z,66.35
2018-01-15T22:25:27.352Z,73.03
2018-01-15T22:27:55.384Z,77.65
2018-01-15T22:30:23.427Z,73.43
2018-01-15T22:32:51.441Z,70.10
2018-01-15T22:35:19.499Z,72.18
2018-01-15T22:37:47.532Z,79.97
2018-01-15T22:40:16.351Z,71.95
2018-01-15T22:42:44.420Z,75.53
2018-01-15T22:45:12.446Z,83.77
2018-01-15T22:47:40.515Z,76.32
2018-01-15T22:50:08.548Z,81.00
2018-01-15T22:52:36.601Z,76.40
2018-01-15T22:55:04.641Z,77.97
2018-01-15T22:57:33.471Z,76.95
2018-01-15T23:00:01.561Z,72.00
2018-01-15T23:02:29.620Z,77.87
2018-01-15T23:04:57.660Z,78.65
2018-01-15T23:07:25.664Z,70.95
2018-01-15T23:09:53.737Z,73.28
2018-01-15T23:12:21.772Z,73.87
2018-01-15T23:14:49.793Z,73.15
2018-01-15T23:17:17.837Z,71.50
2018-01-15T23:19:45.904Z,74.40
2018-01-15T23:22:13.960Z,73.55
2018-01-15T23:24:41.981Z,81.45
2018-01-15T23:27:10.028Z,76.55
2018-01-15T23:29:38.128Z,76.90
2018-01-15T23:32:06.190Z,70.85
2018-01-15T23:34:34.225Z,70.73
2018-01-15T23:37:02.312Z,80.18
2018-01-15T23:39:31.104Z,83.78
2018-01-15T23:41:59.141Z,80.68
2018-01-15T23:44:27.171Z,78.00
2018-01-15T23:46:55.188Z,84.13
2018-01-15T23:49:23.235Z,76.55
2018-01-15T23:51:52.044Z,75.50
2018-01-15T23:54:32.036Z,76.20
2018-01-15T23:57:00.095Z,87.10
2018-01-15T23:59:28.132Z,86.82
